Time;durP1;ratioP1;P1;durP2;ratioP2;P2;SDS_P1;SDS_P2;PMS_P1;PMS_P2;Temp;Humidity;BMP_temperature;BMP_pressure;BME280_temperature;BME280_humidity;BME280_pressure;Samples;Min_cycle;Max_cycle;Signal;HPM_P1;HPM_P2
2022/12/23 00:00:59;;;;;;;2.13;1.00;;;8.30;99.90;;;;;;5071766;28;20107;-38
2022/12/23 00:03:26;;;;;;;1.55;0.90;;;8.30;99.90;;;;;;5078365;28;20036;-40
2022/12/23 00:05:51;;;;;;;2.13;1.00;;;8.30;99.90;;;;;;5081783;28;20063;-40
2022/12/23 00:08:17;;;;;;;2.03;1.00;;;8.30;99.90;;;;;;5080770;28;20147;-39
2022/12/23 00:10:43;;;;;;;0.70;0.70;;;8.30;99.90;;;;;;5082874;28;20031;-39
2022/12/23 00:16:06;;;;;;;1.52;0.90;;;8.30;99.90;;;;;;5082124;28;20070;-39
2022/12/23 00:18:32;;;;;;;1.90;0.93;;;8.30;99.90;;;;;;5080290;28;20084;-40
2022/12/23 00:21:07;;;;;;;0.63;0.63;;;8.30;99.90;;;;;;5086751;28;20485;-36
2022/12/23 00:23:34;;;;;;;1.17;0.85;;;8.30;99.90;;;;;;5081314;28;20059;-40
2022/12/23 00:26:01;;;;;;;3.92;0.90;;;8.30;99.90;;;;;;5081867;28;20055;-35
2022/12/23 00:28:28;;;;;;;2.30;0.77;;;8.30;99.90;;;;;;5086816;28;20028;-38
2022/12/23 00:31:02;;;;;;;1.95;1.02;;;8.30;99.90;;;;;;5084935;27;20713;-40
2022/12/23 00:33:30;;;;;;;3.78;1.10;;;8.30;99.90;;;;;;5106962;27;20042;-39
2022/12/23 00:35:56;;;;;;;0.60;0.60;;;8.30;99.90;;;;;;5102335;27;20027;-41
2022/12/23 00:44:03;;;;;;;1.27;0.88;;;8.30;99.90;;;;;;5096048;27;20679;-40
2022/12/23 00:46:29;;;;;;;0.88;0.88;;;8.30;99.90;;;;;;5102088;27;20573;-37
2022/12/23 00:51:39;;;;;;;0.98;0.95;;;8.30;99.90;;;;;;5108540;27;20406;-35
2022/12/23 00:54:05;;;;;;;2.25;0.75;;;8.30;99.90;;;;;;5101758;27;20099;-35
2022/12/23 00:56:31;;;;;;;2.90;0.93;;;8.30;99.90;;;;;;5099103;27;20027;-39
2022/12/23 00:58:57;;;;;;;0.68;0.68;;;8.40;99.90;;;;;;5101099;27;20031;-36
2022/12/23 01:06:54;;;;;;;0.63;0.63;;;8.50;99.90;;;;;;5095635;27;20038;-37
2022/12/23 01:09:19;;;;;;;0.70;0.70;;;8.50;99.90;;;;;;5096958;27;20478;-34
2022/12/23 01:11:45;;;;;;;0.70;0.70;;;8.50;99.90;;;;;;5105405;27;20051;-39
2022/12/23 01:14:11;;;;;;;1.38;0.95;;;8.40;99.90;;;;;;5105051;27;20043;-40
2022/12/23 01:16:38;;;;;;;1.35;0.85;;;8.50;99.90;;;;;;5096022;27;20028;-40
2022/12/23 01:19:04;;;;;;;0.93;0.93;;;8.40;99.90;;;;;;5096792;27;20085;-39
2022/12/23 01:21:30;;;;;;;0.98;0.68;;;8.40;99.90;;;;;;5102277;27;20536;-34
2022/12/23 01:23:55;;;;;;;1.02;1.00;;;8.40;99.90;;;;;;5099836;27;20063;-40
2022/12/23 01:26:21;;;;;;;1.50;0.65;;;8.40;99.90;;;;;;5104506;27;20085;-35
2022/12/23 01:28:46;;;;;;;2.42;1.23;;;8.40;99.90;;;;;;5078253;28;20113;-40
2022/12/23 01:31:12;;;;;;;1.10;0.98;;;8.40;99.90;;;;;;5075114;28;20042;-38
2022/12/23 01:33:38;;;;;;;1.35;1.13;;;8.40;99.90;;;;;;5075816;28;20503;-35
2022/12/23 01:36:06;;;;;;;0.93;0.93;;;8.50;99.90;;;;;;5075700;27;20630;-37
2022/12/23 01:38:32;;;;;;;2.40;0.90;;;8.50;99.90;;;;;;5074067;28;20770;-35
2022/12/23 01:40:58;;;;;;;0.55;0.55;;;8.60;99.90;;;;;;5080245;27;20977;-35
2022/12/23 01:43:47;;;;;;;0.52;0.52;;;8.50;99.90;;;;;;5078785;28;20028;-39
2022/12/23 01:46:13;;;;;;;0.73;0.73;;;8.60;99.90;;;;;;5076454;27;20019;-34
2022/12/23 01:48:41;;;;;;;0.60;0.60;;;8.60;99.90;;;;;;5076634;27;20148;-34
2022/12/23 01:51:15;;;;;;;0.70;0.70;;;8.60;99.90;;;;;;5071116;28;20525;-35
2022/12/23 01:53:49;;;;;;;0.98;0.98;;;8.60;99.90;;;;;;5077779;28;20046;-33
2022/12/23 01:56:24;;;;;;;1.60;0.70;;;8.60;99.90;;;;;;5074709;28;20945;-36
2022/12/23 01:58:59;;;;;;;0.50;0.50;;;8.60;99.90;;;;;;5073025;27;20036;-32
2022/12/23 02:04:14;;;;;;;0.60;0.60;;;8.70;99.90;;;;;;5072974;27;20076;-33
2022/12/23 02:09:25;;;;;;;1.00;0.88;;;8.80;99.90;;;;;;5076130;28;20175;-38
2022/12/23 02:12:00;;;;;;;0.77;0.77;;;8.80;99.90;;;;;;5077708;27;20466;-39
2022/12/23 02:17:44;;;;;;;0.80;0.80;;;8.90;99.90;;;;;;5073251;28;20081;-41
2022/12/23 02:20:39;;;;;;;0.60;0.60;;;8.90;99.90;;;;;;5076700;28;20404;-39
2022/12/23 02:23:22;;;;;;;3.10;1.00;;;9.00;99.90;;;;;;5076050;27;20051;-39
2022/12/23 02:26:18;;;;;;;0.60;0.60;;;9.10;99.90;;;;;;5074667;27;20067;-40
2022/12/23 02:29:02;;;;;;;0.60;0.60;;;9.10;99.90;;;;;;5076781;28;20548;-35
2022/12/23 02:31:56;;;;;;;1.00;1.00;;;9.10;99.90;;;;;;5077164;28;20119;-34
2022/12/23 02:34:36;;;;;;;1.00;0.73;;;9.10;99.90;;;;;;5074248;28;20032;-37
2022/12/23 02:37:08;;;;;;;2.42;0.98;;;9.10;99.90;;;;;;5075209;28;20485;-34
2022/12/23 02:39:58;;;;;;;0.50;0.50;;;9.10;99.90;;;;;;5081012;28;20067;-35
2022/12/23 02:42:40;;;;;;;0.93;0.85;;;9.10;99.90;;;;;;5075623;27;20118;-36
2022/12/23 02:45:40;;;;;;;0.90;0.90;;;9.10;99.90;;;;;;5074743;27;21790;-39
2022/12/23 02:48:30;;;;;;;0.98;0.88;;;9.10;99.90;;;;;;5071385;28;20248;-33
2022/12/23 02:50:57;;;;;;;0.95;0.88;;;9.10;99.90;;;;;;5070800;28;20040;-34
2022/12/23 02:53:30;;;;;;;0.65;0.65;;;9.20;99.90;;;;;;5070133;28;20043;-32
2022/12/23 02:55:58;;;;;;;0.88;0.88;;;9.10;99.90;;;;;;5082778;27;20089;-40
2022/12/23 02:58:29;;;;;;;1.58;1.00;;;9.10;99.90;;;;;;5096705;28;20028;-39
2022/12/23 03:00:56;;;;;;;0.73;0.60;;;9.20;99.90;;;;;;5103204;27;20051;-38
2022/12/23 03:03:23;;;;;;;0.88;0.50;;;9.20;99.90;;;;;;5097447;27;20522;-41
2022/12/23 03:05:50;;;;;;;1.10;1.00;;;9.20;99.90;;;;;;5076066;28;20103;-37
2022/12/23 03:08:26;;;;;;;1.35;0.80;;;9.20;99.90;;;;;;5073191;28;20761;-38
2022/12/23 03:11:02;;;;;;;0.60;0.60;;;9.20;99.90;;;;;;5071461;28;20473;-34
2022/12/23 03:13:58;;;;;;;0.60;0.60;;;9.30;99.90;;;;;;5073137;28;20058;-36
2022/12/23 03:16:27;;;;;;;0.85;0.80;;;9.40;99.90;;;;;;5075724;28;20657;-37
2022/12/23 03:19:02;;;;;;;0.65;0.65;;;9.40;99.90;;;;;;5071568;28;20028;-35
2022/12/23 03:21:42;;;;;;;0.98;0.90;;;9.40;99.90;;;;;;5075361;28;20419;-40
2022/12/23 03:24:23;;;;;;;0.70;0.70;;;9.40;99.90;;;;;;5077589;28;20444;-37
2022/12/23 03:27:11;;;;;;;1.38;0.90;;;9.40;99.90;;;;;;5089938;28;20047;-40
2022/12/23 03:30:05;;;;;;;0.77;0.77;;;9.40;99.90;;;;;;5103557;28;20465;-41
2022/12/23 03:32:53;;;;;;;0.70;0.70;;;9.40;99.90;;;;;;5102848;27;20832;-41
2022/12/23 03:35:23;;;;;;;0.70;0.70;;;9.30;99.90;;;;;;5093902;28;20035;-40
2022/12/23 03:37:53;;;;;;;0.60;0.60;;;9.40;99.90;;;;;;5098391;28;20024;-38
2022/12/23 03:40:23;;;;;;;0.75;0.75;;;9.40;99.90;;;;;;5100745;28;20061;-41
2022/12/23 03:42:56;;;;;;;0.60;0.60;;;9.40;99.90;;;;;;5107604;28;20027;-40
2022/12/23 03:45:28;;;;;;;0.68;0.68;;;9.30;99.90;;;;;;5101369;28;20545;-41
2022/12/23 03:48:06;;;;;;;0.65;0.65;;;9.30;99.90;;;;;;5098261;28;20590;-38
2022/12/23 03:50:33;;;;;;;0.30;0.30;;;9.30;99.90;;;;;;5097036;28;20122;-40
2022/12/23 03:53:10;;;;;;;0.95;0.90;;;9.30;99.90;;;;;;5101615;28;20059;-39
2022/12/23 03:55:45;;;;;;;1.20;1.20;;;9.30;99.90;;;;;;5096887;28;20028;-41
2022/12/23 03:58:19;;;;;;;1.33;0.80;;;9.40;99.90;;;;;;5094265;28;20081;-37
2022/12/23 04:00:56;;;;;;;0.50;0.50;;;9.40;99.90;;;;;;5087868;28;20090;-41
2022/12/23 04:03:32;;;;;;;0.65;0.65;;;9.40;99.90;;;;;;5075687;28;20067;-41
2022/12/23 04:06:00;;;;;;;0.50;0.50;;;9.40;99.90;;;;;;5073704;28;20032;-38
2022/12/23 04:08:33;;;;;;;0.55;0.55;;;9.40;99.90;;;;;;5075946;28;20028;-41
2022/12/23 04:11:00;;;;;;;0.73;0.65;;;9.50;99.90;;;;;;5083674;28;20044;-37
2022/12/23 04:13:27;;;;;;;0.40;0.40;;;9.50;99.90;;;;;;5085106;28;20036;-40
2022/12/23 04:15:53;;;;;;;0.52;0.52;;;9.40;99.90;;;;;;5075169;28;20677;-42
2022/12/23 04:18:19;;;;;;;0.55;0.55;;;9.40;99.90;;;;;;5080777;28;20031;-40
2022/12/23 04:20:45;;;;;;;0.40;0.40;;;9.50;99.90;;;;;;5088827;28;20111;-42
2022/12/23 04:23:10;;;;;;;0.50;0.50;;;9.50;99.90;;;;;;5080099;28;20043;-40
2022/12/23 04:25:36;;;;;;;0.50;0.50;;;9.50;99.90;;;;;;5089046;28;20396;-42
2022/12/23 04:28:02;;;;;;;8.55;0.75;;;9.60;99.90;;;;;;5087006;28;20436;-34
2022/12/23 04:30:28;;;;;;;1.38;0.73;;;9.60;99.90;;;;;;5084007;28;20064;-39
2022/12/23 04:32:53;;;;;;;0.52;0.50;;;9.60;99.90;;;;;;5102202;27;20042;-38
2022/12/23 04:35:20;;;;;;;0.50;0.50;;;9.60;99.90;;;;;;5098071;27;20028;-38
2022/12/23 04:37:45;;;;;;;0.50;0.50;;;9.60;99.90;;;;;;5109829;27;20019;-39
2022/12/23 04:40:11;;;;;;;0.45;0.45;;;9.70;99.90;;;;;;5102653;27;20506;-41
2022/12/23 04:42:36;;;;;;;0.50;0.50;;;9.70;99.90;;;;;;5105028;27;20028;-40
2022/12/23 04:45:02;;;;;;;0.60;0.60;;;9.70;99.90;;;;;;5100973;27;20059;-37
2022/12/23 04:47:28;;;;;;;0.73;0.70;;;9.70;99.90;;;;;;5107776;27;20050;-42
2022/12/23 04:49:54;;;;;;;0.60;0.60;;;9.80;99.90;;;;;;5102517;27;20043;-40
2022/12/23 04:52:19;;;;;;;0.57;0.57;;;9.80;99.90;;;;;;5111123;27;20605;-39
2022/12/23 04:54:45;;;;;;;0.32;0.32;;;9.70;99.90;;;;;;5103395;27;20032;-40
2022/12/23 04:57:10;;;;;;;0.45;0.45;;;9.80;99.90;;;;;;5098955;28;20036;-38
2022/12/23 04:59:36;;;;;;;0.30;0.30;;;9.80;99.90;;;;;;5104724;27;20040;-42
2022/12/23 05:02:01;;;;;;;0.68;0.55;;;9.80;99.90;;;;;;5099010;28;20451;-38
2022/12/23 05:04:27;;;;;;;0.95;0.40;;;9.80;99.90;;;;;;5104614;27;20388;-39
2022/12/23 05:06:53;;;;;;;0.45;0.45;;;9.80;99.90;;;;;;5105673;27;20039;-41
2022/12/23 05:09:18;;;;;;;0.50;0.50;;;9.70;99.90;;;;;;5111298;27;20038;-41
2022/12/23 05:11:44;;;;;;;0.60;0.47;;;9.80;99.90;;;;;;5098678;27;20024;-36
2022/12/23 05:14:10;;;;;;;1.60;0.40;;;9.80;99.90;;;;;;5106039;27;20040;-40
2022/12/23 05:16:36;;;;;;;0.52;0.40;;;9.80;99.90;;;;;;5102347;27;20068;-41
2022/12/23 05:19:02;;;;;;;0.40;0.40;;;9.80;99.90;;;;;;5109278;27;20031;-38
2022/12/23 05:21:27;;;;;;;0.68;0.68;;;9.90;99.90;;;;;;5101710;27;20515;-41
2022/12/23 05:23:54;;;;;;;0.40;0.40;;;9.80;99.90;;;;;;5105381;27;20034;-41
2022/12/23 05:26:20;;;;;;;0.40;0.40;;;9.90;99.90;;;;;;5094903;27;20034;-40
2022/12/23 05:28:46;;;;;;;0.38;0.38;;;9.90;99.90;;;;;;5096504;27;20399;-41
2022/12/23 05:31:12;;;;;;;0.45;0.45;;;9.90;99.90;;;;;;5105862;27;20024;-42
2022/12/23 05:33:38;;;;;;;0.40;0.40;;;9.90;99.90;;;;;;5097573;27;20060;-36
2022/12/23 05:36:04;;;;;;;0.60;0.60;;;10.00;99.90;;;;;;5106982;27;20116;-41
2022/12/23 05:38:30;;;;;;;0.57;0.57;;;10.00;99.90;;;;;;5104041;27;20028;-41
2022/12/23 05:40:56;;;;;;;0.32;0.32;;;10.10;99.90;;;;;;5100324;27;20076;-41
2022/12/23 05:43:22;;;;;;;0.50;0.50;;;10.10;99.90;;;;;;5097421;28;20032;-42
2022/12/23 05:45:48;;;;;;;0.47;0.47;;;10.00;99.90;;;;;;5090631;27;20102;-41
2022/12/23 05:48:14;;;;;;;0.30;0.30;;;10.10;99.90;;;;;;5100148;27;20479;-40
2022/12/23 05:50:40;;;;;;;0.32;0.32;;;10.10;99.90;;;;;;5102924;27;20023;-37
2022/12/23 05:53:06;;;;;;;0.43;0.43;;;10.10;99.90;;;;;;5101194;27;20051;-38
2022/12/23 05:55:32;;;;;;;0.50;0.50;;;10.10;99.90;;;;;;5100080;27;20028;-39
2022/12/23 05:57:58;;;;;;;1.08;0.30;;;10.10;99.90;;;;;;5097447;27;20028;-39
2022/12/23 06:00:24;;;;;;;0.30;0.30;;;10.10;99.90;;;;;;5103208;27;20035;-37
2022/12/23 06:02:49;;;;;;;0.35;0.35;;;10.10;99.90;;;;;;5094343;27;20644;-41
2022/12/23 06:05:15;;;;;;;0.40;0.40;;;10.10;99.90;;;;;;5105902;27;20032;-39
2022/12/23 06:07:41;;;;;;;0.30;0.30;;;10.00;99.90;;;;;;5098786;27;20517;-41
2022/12/23 06:10:08;;;;;;;0.32;0.32;;;10.10;99.90;;;;;;5100668;27;20040;-41
2022/12/23 06:12:34;;;;;;;0.35;0.35;;;10.10;99.90;;;;;;5095932;27;20036;-39
2022/12/23 06:15:00;;;;;;;2.00;0.50;;;10.00;99.90;;;;;;5094393;27;20804;-39
2022/12/23 06:17:26;;;;;;;0.50;0.50;;;10.00;99.90;;;;;;5096200;27;20047;-40
2022/12/23 06:19:51;;;;;;;0.60;0.43;;;10.00;99.90;;;;;;5102570;27;20031;-36
2022/12/23 06:22:19;;;;;;;0.40;0.40;;;10.00;99.90;;;;;;5101356;27;20473;-37
2022/12/23 06:24:45;;;;;;;0.40;0.40;;;10.00;99.90;;;;;;5102472;27;20035;-42
2022/12/23 06:27:10;;;;;;;0.43;0.43;;;10.00;99.90;;;;;;5104073;27;20034;-41
2022/12/23 06:29:36;;;;;;;0.40;0.40;;;10.00;99.90;;;;;;5102845;27;20039;-42
2022/12/23 06:32:02;;;;;;;0.52;0.52;;;10.00;99.90;;;;;;5100621;27;20031;-39
2022/12/23 06:34:27;;;;;;;0.40;0.40;;;10.00;99.90;;;;;;5093873;28;20031;-40
2022/12/23 06:36:53;;;;;;;0.57;0.50;;;10.00;99.90;;;;;;5102716;27;20055;-41
2022/12/23 06:39:19;;;;;;;0.47;0.47;;;10.00;99.90;;;;;;5095858;27;20023;-40
2022/12/23 06:41:44;;;;;;;0.43;0.43;;;10.00;99.90;;;;;;5095899;27;20065;-40
2022/12/23 06:44:10;;;;;;;1.10;0.45;;;9.90;99.90;;;;;;5097741;28;20060;-38
2022/12/23 06:46:36;;;;;;;0.40;0.40;;;9.90;99.90;;;;;;5099037;27;20050;-37
2022/12/23 06:49:01;;;;;;;1.10;0.60;;;9.90;99.90;;;;;;5095044;28;20024;-39
2022/12/23 06:51:27;;;;;;;0.50;0.50;;;9.90;99.90;;;;;;5092757;28;20652;-38
2022/12/23 06:53:53;;;;;;;0.82;0.60;;;9.90;99.90;;;;;;5100569;27;20027;-39
2022/12/23 06:56:19;;;;;;;0.63;0.60;;;9.90;99.90;;;;;;5097873;27;21491;-39
2022/12/23 06:58:45;;;;;;;0.65;0.65;;;9.90;99.90;;;;;;5092768;27;20028;-34
2022/12/23 07:01:10;;;;;;;0.60;0.60;;;9.90;99.90;;;;;;5103109;28;20027;-33
2022/12/23 07:03:36;;;;;;;1.75;0.80;;;9.90;99.90;;;;;;5097154;28;20208;-37
2022/12/23 07:06:02;;;;;;;1.45;0.60;;;9.90;99.90;;;;;;5098882;27;20396;-35
2022/12/23 07:08:28;;;;;;;0.88;0.88;;;9.90;99.90;;;;;;5096513;28;20032;-38
2022/12/23 07:10:58;;;;;;;0.45;0.45;;;9.80;99.90;;;;;;5098367;28;20101;-34
2022/12/23 07:13:24;;;;;;;0.40;0.40;;;9.80;99.90;;;;;;5094228;28;20522;-34
2022/12/23 07:15:50;;;;;;;0.60;0.60;;;9.80;99.90;;;;;;5093669;28;20477;-40
2022/12/23 07:18:16;;;;;;;1.30;1.20;;;9.80;99.90;;;;;;5091170;28;20032;-39
2022/12/23 07:20:41;;;;;;;0.30;0.30;;;9.80;99.90;;;;;;5094944;28;20092;-40
2022/12/23 07:23:07;;;;;;;2.53;0.75;;;9.90;99.90;;;;;;5092596;28;20440;-41
2022/12/23 07:25:32;;;;;;;0.57;0.57;;;9.90;99.90;;;;;;5093029;28;20039;-39
2022/12/23 07:27:58;;;;;;;0.47;0.45;;;9.90;99.90;;;;;;5088798;28;20139;-39
2022/12/23 07:30:24;;;;;;;0.68;0.68;;;9.90;99.90;;;;;;5090831;28;20031;-32
2022/12/23 07:32:51;;;;;;;0.60;0.60;;;9.90;99.90;;;;;;5093197;28;20098;-41
2022/12/23 07:35:16;;;;;;;0.70;0.70;;;9.90;99.90;;;;;;5094341;27;20019;-38
2022/12/23 07:37:42;;;;;;;2.50;0.90;;;9.90;99.90;;;;;;5099239;28;20027;-38
2022/12/23 07:40:09;;;;;;;0.82;0.82;;;9.80;99.90;;;;;;5094335;28;20023;-38
2022/12/23 07:42:35;;;;;;;3.80;0.90;;;9.80;99.90;;;;;;5091459;28;20027;-40
2022/12/23 07:45:01;;;;;;;1.55;1.00;;;9.80;99.90;;;;;;5097705;28;20038;-38
2022/12/23 07:47:26;;;;;;;3.40;1.02;;;9.80;99.90;;;;;;5100943;28;20114;-39
2022/12/23 07:49:52;;;;;;;1.20;1.10;;;9.80;99.90;;;;;;5096493;28;20133;-40
2022/12/23 07:52:18;;;;;;;2.38;1.10;;;9.70;99.90;;;;;;5078603;28;20043;-38
2022/12/23 07:54:43;;;;;;;2.10;0.85;;;9.70;99.90;;;;;;5085108;28;20039;-39
2022/12/23 07:57:09;;;;;;;0.93;0.82;;;9.70;99.90;;;;;;5098324;28;20031;-37
2022/12/23 07:59:34;;;;;;;3.28;1.10;;;9.70;99.90;;;;;;5107631;27;20119;-38
2022/12/23 08:02:00;;;;;;;1.52;0.93;;;9.70;99.90;;;;;;5100571;27;20024;-41
2022/12/23 08:04:26;;;;;;;0.90;0.88;;;9.70;99.90;;;;;;5098427;27;20028;-39
2022/12/23 08:06:51;;;;;;;1.15;0.80;;;9.80;99.90;;;;;;5101989;27;20027;-40
2022/12/23 08:09:17;;;;;;;1.35;0.82;;;9.80;99.90;;;;;;5104373;27;20028;-41
2022/12/23 08:11:44;;;;;;;0.90;0.90;;;9.90;99.90;;;;;;5096452;27;20117;-40
2022/12/23 08:14:09;;;;;;;0.80;0.80;;;9.90;99.90;;;;;;5101918;27;20040;-37
2022/12/23 08:16:35;;;;;;;0.80;0.80;;;10.00;99.90;;;;;;5097954;27;20482;-40
2022/12/23 08:19:01;;;;;;;0.80;0.80;;;10.00;99.90;;;;;;5105692;27;20039;-40
2022/12/23 08:21:26;;;;;;;2.25;1.27;;;10.10;99.90;;;;;;5096406;27;20023;-35
2022/12/23 08:23:52;;;;;;;1.98;0.82;;;10.10;99.90;;;;;;5106868;27;20059;-38
2022/12/23 08:26:20;;;;;;;1.08;0.85;;;10.10;99.90;;;;;;5103749;27;20330;-37
2022/12/23 08:28:47;;;;;;;2.15;0.90;;;10.10;99.90;;;;;;5101339;27;20027;-37
2022/12/23 08:31:16;;;;;;;1.00;0.90;;;10.10;99.90;;;;;;5094717;28;20532;-39
2022/12/23 08:33:44;;;;;;;1.80;1.38;;;10.10;99.90;;;;;;5098535;27;20032;-40
2022/12/23 08:36:13;;;;;;;2.17;1.47;;;10.20;99.90;;;;;;5094657;27;20063;-39
2022/12/23 08:38:39;;;;;;;0.82;0.80;;;10.20;99.90;;;;;;5102479;28;20289;-39
2022/12/23 08:41:11;;;;;;;4.30;1.83;;;10.30;99.90;;;;;;5097281;28;20555;-41
2022/12/23 08:43:36;;;;;;;1.05;0.85;;;10.30;99.90;;;;;;5105985;27;20027;-40
2022/12/23 08:46:03;;;;;;;0.77;0.77;;;10.30;99.90;;;;;;5095939;27;20107;-40
2022/12/23 08:48:29;;;;;;;3.60;0.80;;;10.40;99.90;;;;;;5093753;27;20513;-36
2022/12/23 08:50:54;;;;;;;0.90;0.88;;;10.40;99.90;;;;;;5095489;27;20150;-39
2022/12/23 08:53:20;;;;;;;1.00;0.90;;;10.40;99.90;;;;;;5097591;27;20044;-39
2022/12/23 08:55:47;;;;;;;0.70;0.70;;;10.40;99.90;;;;;;5097956;28;20028;-40
2022/12/23 08:58:14;;;;;;;0.87;0.77;;;10.50;99.90;;;;;;5109477;27;20020;-40
2022/12/23 09:00:41;;;;;;;1.02;1.00;;;10.60;99.90;;;;;;5093488;28;20787;-39
2022/12/23 09:03:07;;;;;;;0.60;0.60;;;10.60;99.90;;;;;;5083263;28;20136;-37
2022/12/23 09:05:37;;;;;;;1.00;0.90;;;10.60;99.90;;;;;;5095026;27;20036;-39
2022/12/23 09:08:03;;;;;;;0.70;0.70;;;10.60;99.90;;;;;;5094746;27;20511;-40
2022/12/23 09:10:29;;;;;;;2.55;1.85;;;10.60;99.90;;;;;;5092610;27;20032;-41
2022/12/23 09:12:55;;;;;;;0.80;0.80;;;10.70;99.90;;;;;;5096728;27;20070;-40
2022/12/23 09:15:20;;;;;;;1.55;1.00;;;10.80;99.90;;;;;;5108661;27;20028;-39
2022/12/23 09:17:46;;;;;;;1.08;1.00;;;10.80;99.90;;;;;;5103666;27;20019;-40
2022/12/23 09:20:12;;;;;;;0.95;0.90;;;10.80;99.90;;;;;;5104150;27;20027;-37
2022/12/23 09:22:37;;;;;;;0.50;0.50;;;10.90;99.90;;;;;;5112284;27;20027;-40
2022/12/23 09:25:03;;;;;;;0.68;0.68;;;11.00;99.90;;;;;;5100719;27;20223;-37
2022/12/23 09:27:29;;;;;;;1.20;0.70;;;11.00;99.90;;;;;;5101828;27;20476;-40
2022/12/23 09:29:55;;;;;;;1.83;0.73;;;11.00;99.90;;;;;;5097743;28;20061;-40
2022/12/23 09:32:20;;;;;;;1.23;0.68;;;11.00;99.90;;;;;;5103897;27;20035;-36
2022/12/23 09:34:46;;;;;;;0.80;0.80;;;11.00;99.90;;;;;;5100261;27;20428;-40
2022/12/23 09:37:15;;;;;;;0.80;0.80;;;11.00;99.90;;;;;;5101567;27;20024;-40
2022/12/23 09:39:41;;;;;;;1.15;0.95;;;11.00;99.90;;;;;;5107209;27;20027;-40
2022/12/23 09:42:30;;;;;;;1.40;1.00;;;11.00;99.90;;;;;;5094600;27;20034;-37
2022/12/23 09:45:08;;;;;;;0.80;0.80;;;11.00;99.90;;;;;;5103362;27;20015;-40
2022/12/23 09:47:35;;;;;;;1.55;0.95;;;11.00;99.90;;;;;;5095883;27;20042;-37
2022/12/23 09:50:09;;;;;;;1.13;0.85;;;11.10;99.90;;;;;;5099882;27;20043;-39
2022/12/23 09:52:59;;;;;;;0.75;0.75;;;11.10;99.90;;;;;;5105048;27;20098;-40
2022/12/23 09:55:47;;;;;;;1.40;0.90;;;11.10;99.90;;;;;;5089687;28;20023;-37
2022/12/23 09:58:26;;;;;;;1.00;0.70;;;11.20;99.90;;;;;;5092151;28;20032;-36
2022/12/23 10:01:16;;;;;;;0.80;0.80;;;11.10;99.90;;;;;;5098797;27;20035;-38
2022/12/23 10:03:56;;;;;;;0.77;0.77;;;11.10;99.90;;;;;;5083477;27;20031;-36
2022/12/23 10:06:26;;;;;;;0.90;0.65;;;11.10;99.90;;;;;;5092818;27;20030;-38
2022/12/23 10:08:57;;;;;;;1.52;0.60;;;11.10;99.90;;;;;;5100334;27;20439;-41
2022/12/23 10:11:33;;;;;;;0.50;0.50;;;11.10;99.90;;;;;;5101030;27;20393;-41
2022/12/23 10:14:31;;;;;;;0.50;0.50;;;11.10;99.90;;;;;;5104032;27;20043;-34
2022/12/23 10:17:11;;;;;;;;;;;11.10;99.90;;;;;;5098990;27;20028;-41
2022/12/23 10:19:41;;;;;;;0.60;0.60;;;11.10;99.90;;;;;;5102387;28;19976;-38
2022/12/23 10:22:23;;;;;;;1.30;0.73;;;11.10;99.90;;;;;;5104907;28;20024;-40
2022/12/23 10:24:49;;;;;;;0.70;0.70;;;11.10;99.90;;;;;;5095497;27;20023;-37
2022/12/23 10:27:31;;;;;;;0.60;0.60;;;11.10;99.90;;;;;;5099687;27;20056;-41
2022/12/23 10:30:12;;;;;;;0.63;0.63;;;11.10;99.90;;;;;;5093151;27;20117;-40
2022/12/23 10:33:00;;;;;;;0.80;0.80;;;11.10;99.90;;;;;;5088817;27;20494;-39
2022/12/23 10:35:32;;;;;;;0.68;0.68;;;11.10;99.90;;;;;;5087573;27;20027;-35
2022/12/23 10:38:29;;;;;;;0.70;0.50;;;11.00;99.90;;;;;;5099950;27;20027;-39
2022/12/23 10:41:10;;;;;;;1.00;0.90;;;11.00;99.90;;;;;;5098020;27;20092;-41
2022/12/23 10:43:42;;;;;;;1.20;0.90;;;11.00;99.90;;;;;;5094515;28;20104;-38
2022/12/23 10:46:33;;;;;;;0.73;0.63;;;11.00;99.90;;;;;;5103192;27;20036;-41
2022/12/23 10:49:10;;;;;;;0.73;0.73;;;11.00;99.90;;;;;;5096748;27;20539;-41
2022/12/23 10:51:48;;;;;;;1.07;0.80;;;11.00;99.90;;;;;;5099132;28;20084;-41
2022/12/23 10:54:22;;;;;;;0.50;0.50;;;11.00;99.90;;;;;;5102344;27;20019;-38
2022/12/23 10:56:48;;;;;;;1.02;0.88;;;11.00;99.90;;;;;;5107118;27;20088;-39
2022/12/23 10:59:19;;;;;;;0.70;0.70;;;11.10;99.90;;;;;;5102483;27;20696;-41
2022/12/23 11:01:50;;;;;;;2.28;1.00;;;11.00;99.90;;;;;;5098162;28;20047;-40
2022/12/23 11:04:22;;;;;;;1.92;1.17;;;11.00;99.90;;;;;;5102912;27;20523;-41
2022/12/23 11:06:51;;;;;;;1.33;1.08;;;11.00;99.90;;;;;;5096511;27;20019;-38
2022/12/23 11:09:23;;;;;;;1.30;1.20;;;11.00;99.90;;;;;;5095577;28;20020;-38
2022/12/23 11:11:57;;;;;;;2.10;1.00;;;11.10;99.90;;;;;;5098266;28;20016;-36
2022/12/23 11:14:49;;;;;;;1.75;0.95;;;11.00;99.90;;;;;;5100442;28;20035;-39
2022/12/23 11:17:24;;;;;;;1.27;1.23;;;11.10;99.90;;;;;;5097556;28;20016;-39
2022/12/23 11:20:16;;;;;;;2.20;0.98;;;11.10;99.90;;;;;;5081268;28;20035;-40
2022/12/23 11:22:51;;;;;;;1.38;1.30;;;11.10;99.90;;;;;;5100712;28;20111;-41
2022/12/23 11:25:28;;;;;;;1.65;1.30;;;11.10;99.90;;;;;;5095159;28;20036;-37
2022/12/23 11:28:01;;;;;;;1.47;1.37;;;11.20;99.90;;;;;;5089708;28;20036;-39
2022/12/23 11:30:28;;;;;;;1.13;1.13;;;11.20;99.90;;;;;;5090205;28;20035;-37
2022/12/23 11:32:54;;;;;;;1.20;1.20;;;11.30;99.90;;;;;;5097086;27;20496;-37
2022/12/23 11:35:28;;;;;;;3.38;1.67;;;11.30;99.90;;;;;;5099978;27;20019;-37
2022/12/23 11:37:55;;;;;;;1.48;1.00;;;11.30;99.90;;;;;;5106237;27;20036;-39
2022/12/23 11:40:30;;;;;;;1.55;1.20;;;11.40;99.90;;;;;;5099588;27;20042;-40
2022/12/23 11:43:00;;;;;;;2.58;1.33;;;11.30;99.90;;;;;;5101018;27;20117;-39
2022/12/23 11:45:29;;;;;;;2.72;1.45;;;11.40;99.90;;;;;;5098730;27;20028;-33
2022/12/23 11:47:55;;;;;;;1.00;1.00;;;11.40;99.90;;;;;;5099223;27;20101;-32
2022/12/23 11:50:39;;;;;;;1.38;1.30;;;11.40;99.90;;;;;;5103549;27;20031;-39
2022/12/23 11:53:21;;;;;;;1.35;1.30;;;11.40;99.90;;;;;;5107835;27;20029;-39
2022/12/23 11:56:05;;;;;;;2.10;1.75;;;11.40;99.90;;;;;;5100224;27;20031;-36
2022/12/23 11:58:44;;;;;;;1.17;1.17;;;11.40;99.90;;;;;;5108682;27;20540;-38
2022/12/23 12:01:19;;;;;;;1.55;1.45;;;11.40;99.90;;;;;;5098456;27;20032;-39
2022/12/23 12:03:58;;;;;;;1.13;1.13;;;11.40;99.90;;;;;;5100753;27;20574;-40
2022/12/23 12:06:25;;;;;;;1.05;1.05;;;11.50;99.90;;;;;;5096681;27;20578;-36
2022/12/23 12:08:52;;;;;;;1.15;0.80;;;11.40;99.90;;;;;;5099550;27;20035;-36
2022/12/23 12:11:35;;;;;;;1.70;1.20;;;11.40;99.90;;;;;;5092513;27;20854;-39
2022/12/23 12:14:06;;;;;;;1.30;1.20;;;11.40;99.90;;;;;;5098610;27;20063;-38
2022/12/23 12:16:51;;;;;;;1.02;1.00;;;11.40;99.90;;;;;;5094964;27;20043;-40
2022/12/23 12:19:19;;;;;;;0.77;0.77;;;11.40;99.90;;;;;;5099458;27;20015;-34
2022/12/23 12:21:48;;;;;;;0.90;0.90;;;11.40;99.90;;;;;;5096061;27;20397;-41
2022/12/23 12:24:21;;;;;;;1.35;0.95;;;11.40;99.90;;;;;;5100077;28;20513;-38
2022/12/23 12:26:51;;;;;;;1.60;0.70;;;11.40;99.90;;;;;;5104842;27;20487;-39
2022/12/23 12:29:26;;;;;;;0.80;0.75;;;11.40;99.90;;;;;;5098383;27;20270;-41
2022/12/23 12:31:55;;;;;;;1.52;0.80;;;11.40;99.90;;;;;;5098104;28;20803;-39
2022/12/23 12:34:35;;;;;;;1.25;1.05;;;11.40;99.90;;;;;;5103521;27;20020;-39
2022/12/23 12:37:09;;;;;;;1.27;0.70;;;11.40;99.90;;;;;;5098189;27;20126;-38
2022/12/23 12:39:44;;;;;;;0.50;0.50;;;11.30;99.90;;;;;;5106769;27;20023;-41
2022/12/23 12:42:38;;;;;;;0.70;0.70;;;11.30;99.90;;;;;;5100172;27;20110;-38
2022/12/23 12:45:22;;;;;;;0.70;0.70;;;11.20;99.90;;;;;;5082674;28;20465;-41
2022/12/23 12:48:21;;;;;;;1.00;0.90;;;11.20;99.90;;;;;;5100289;27;20039;-41
2022/12/23 12:51:25;;;;;;;0.82;0.70;;;11.20;99.90;;;;;;5101034;28;20367;-41
2022/12/23 12:54:03;;;;;;;0.70;0.70;;;11.10;99.90;;;;;;5103833;27;20476;-40
2022/12/23 12:56:47;;;;;;;0.98;0.73;;;11.10;99.90;;;;;;5099564;27;20032;-41
2022/12/23 12:59:16;;;;;;;0.50;0.50;;;11.10;99.90;;;;;;5106577;27;20111;-41
2022/12/23 13:01:42;;;;;;;1.20;0.80;;;11.10;99.90;;;;;;5101480;28;20032;-41
2022/12/23 13:04:32;;;;;;;0.73;0.73;;;11.10;99.90;;;;;;5102275;27;20020;-38
2022/12/23 13:07:08;;;;;;;0.57;0.57;;;11.10;99.90;;;;;;5097877;27;20032;-41
2022/12/23 13:09:59;;;;;;;0.73;0.63;;;11.00;99.90;;;;;;5097470;27;20405;-41
2022/12/23 13:12:40;;;;;;;3.80;0.90;;;11.10;99.90;;;;;;5093880;27;20027;-41
2022/12/23 13:15:18;;;;;;;0.60;0.60;;;11.10;99.90;;;;;;5096578;27;20031;-36
2022/12/23 13:18:07;;;;;;;1.08;0.70;;;11.10;99.90;;;;;;5092825;27;20126;-40
2022/12/23 13:20:47;;;;;;;0.70;0.70;;;11.10;99.90;;;;;;5095064;27;20105;-41
2022/12/23 13:23:20;;;;;;;0.40;0.40;;;11.00;99.90;;;;;;5104050;27;20103;-37
2022/12/23 13:25:52;;;;;;;0.65;0.65;;;11.00;99.90;;;;;;5097538;27;20028;-40
2022/12/23 13:28:37;;;;;;;1.17;1.00;;;11.00;99.90;;;;;;5106068;27;20046;-41
2022/12/23 13:31:15;;;;;;;1.58;0.80;;;11.00;99.90;;;;;;5099298;27;20157;-41
2022/12/23 13:33:50;;;;;;;1.30;0.75;;;11.00;99.90;;;;;;5103301;28;20028;-38
2022/12/23 13:36:18;;;;;;;2.80;1.10;;;10.90;99.90;;;;;;5096657;28;20020;-39
2022/12/23 13:38:59;;;;;;;0.57;0.57;;;10.80;99.90;;;;;;5105099;27;20489;-40